sensor_id;sensor_type;location;lat;lon;timestamp;temperature;humidity
39925;DHT22;25592;49.986;11.618;2023-06-26T00:02:29;22.20;85.50
39925;DHT22;25592;49.986;11.618;2023-06-26T00:05:17;22.10;85.40
39925;DHT22;25592;49.986;11.618;2023-06-26T00:08:03;22.10;86.30
39925;DHT22;25592;49.986;11.618;2023-06-26T00:10:49;22.10;86.20
39925;DHT22;25592;49.986;11.618;2023-06-26T00:13:36;22.00;86.10
39925;DHT22;25592;49.986;11.618;2023-06-26T00:16:21;22.00;85.80
39925;DHT22;25592;49.986;11.618;2023-06-26T00:19:07;21.90;85.80
39925;DHT22;25592;49.986;11.618;2023-06-26T00:21:53;21.90;85.80
39925;DHT22;25592;49.986;11.618;2023-06-26T00:24:39;21.80;86.30
39925;DHT22;25592;49.986;11.618;2023-06-26T00:27:24;21.70;86.70
39925;DHT22;25592;49.986;11.618;2023-06-26T00:30:10;21.70;86.90
39925;DHT22;25592;49.986;11.618;2023-06-26T00:32:55;21.70;87.00
39925;DHT22;25592;49.986;11.618;2023-06-26T00:35:40;21.70;87.30
39925;DHT22;25592;49.986;11.618;2023-06-26T00:38:26;21.70;86.80
39925;DHT22;25592;49.986;11.618;2023-06-26T00:41:11;21.70;87.20
39925;DHT22;25592;49.986;11.618;2023-06-26T00:43:58;21.60;87.20
39925;DHT22;25592;49.986;11.618;2023-06-26T00:46:44;21.70;87.10
39925;DHT22;25592;49.986;11.618;2023-06-26T00:49:29;21.60;87.60
39925;DHT22;25592;49.986;11.618;2023-06-26T00:52:15;21.50;87.40
39925;DHT22;25592;49.986;11.618;2023-06-26T00:55:01;21.50;87.70
39925;DHT22;25592;49.986;11.618;2023-06-26T00:57:47;21.50;87.40
39925;DHT22;25592;49.986;11.618;2023-06-26T01:00:33;21.50;87.60
39925;DHT22;25592;49.986;11.618;2023-06-26T01:03:19;21.40;87.70
39925;DHT22;25592;49.986;11.618;2023-06-26T01:06:05;21.40;87.80
39925;DHT22;25592;49.986;11.618;2023-06-26T01:08:51;21.40;87.70
39925;DHT22;25592;49.986;11.618;2023-06-26T01:11:36;21.40;87.70
39925;DHT22;25592;49.986;11.618;2023-06-26T01:14:22;21.30;88.00
39925;DHT22;25592;49.986;11.618;2023-06-26T01:17:08;21.30;88.10
39925;DHT22;25592;49.986;11.618;2023-06-26T01:20:01;21.30;87.80
39925;DHT22;25592;49.986;11.618;2023-06-26T01:28:57;21.20;88.30
39925;DHT22;25592;49.986;11.618;2023-06-26T01:31:44;21.20;88.30
39925;DHT22;25592;49.986;11.618;2023-06-26T01:34:31;21.10;88.60
39925;DHT22;25592;49.986;11.618;2023-06-26T01:37:17;21.10;88.60
39925;DHT22;25592;49.986;11.618;2023-06-26T01:40:02;21.10;88.80
39925;DHT22;25592;49.986;11.618;2023-06-26T01:42:51;21.10;89.30
39925;DHT22;25592;49.986;11.618;2023-06-26T01:45:37;21.00;89.00
39925;DHT22;25592;49.986;11.618;2023-06-26T01:48:26;21.00;89.00
39925;DHT22;25592;49.986;11.618;2023-06-26T01:51:14;21.00;89.20
39925;DHT22;25592;49.986;11.618;2023-06-26T01:54:01;21.00;89.30
39925;DHT22;25592;49.986;11.618;2023-06-26T01:56:49;20.80;89.30
39925;DHT22;25592;49.986;11.618;2023-06-26T01:59:34;20.80;89.30
39925;DHT22;25592;49.986;11.618;2023-06-26T02:02:23;20.80;89.40
39925;DHT22;25592;49.986;11.618;2023-06-26T02:05:09;20.80;89.40
39925;DHT22;25592;49.986;11.618;2023-06-26T02:07:55;20.70;90.00
39925;DHT22;25592;49.986;11.618;2023-06-26T02:10:40;20.70;90.00
39925;DHT22;25592;49.986;11.618;2023-06-26T02:13:26;20.60;90.00
39925;DHT22;25592;49.986;11.618;2023-06-26T02:16:11;20.60;90.10
39925;DHT22;25592;49.986;11.618;2023-06-26T02:18:56;20.60;90.10
39925;DHT22;25592;49.986;11.618;2023-06-26T02:21:43;20.60;90.10
39925;DHT22;25592;49.986;11.618;2023-06-26T02:24:28;20.60;90.30
39925;DHT22;25592;49.986;11.618;2023-06-26T02:27:15;20.50;90.30
39925;DHT22;25592;49.986;11.618;2023-06-26T02:30:00;20.50;90.20
39925;DHT22;25592;49.986;11.618;2023-06-26T02:32:46;20.60;90.30
39925;DHT22;25592;49.986;11.618;2023-06-26T02:35:32;20.50;90.30
39925;DHT22;25592;49.986;11.618;2023-06-26T02:38:18;20.50;90.40
39925;DHT22;25592;49.986;11.618;2023-06-26T02:41:03;20.40;90.40
39925;DHT22;25592;49.986;11.618;2023-06-26T02:43:49;20.40;90.50
39925;DHT22;25592;49.986;11.618;2023-06-26T02:46:34;20.40;90.50
39925;DHT22;25592;49.986;11.618;2023-06-26T02:49:19;20.40;90.40
39925;DHT22;25592;49.986;11.618;2023-06-26T02:52:07;20.30;90.50
39925;DHT22;25592;49.986;11.618;2023-06-26T02:54:53;20.30;90.50
39925;DHT22;25592;49.986;11.618;2023-06-26T02:57:38;20.20;90.70
39925;DHT22;25592;49.986;11.618;2023-06-26T03:00:23;20.20;90.60
39925;DHT22;25592;49.986;11.618;2023-06-26T03:03:09;20.20;90.70
39925;DHT22;25592;49.986;11.618;2023-06-26T03:05:55;20.20;90.70
39925;DHT22;25592;49.986;11.618;2023-06-26T03:08:40;20.20;90.60
39925;DHT22;25592;49.986;11.618;2023-06-26T03:11:25;20.20;90.60
39925;DHT22;25592;49.986;11.618;2023-06-26T03:14:11;20.20;90.70
39925;DHT22;25592;49.986;11.618;2023-06-26T03:16:56;20.20;90.70
39925;DHT22;25592;49.986;11.618;2023-06-26T03:19:43;20.20;90.70
39925;DHT22;25592;49.986;11.618;2023-06-26T03:22:30;20.20;90.80
39925;DHT22;25592;49.986;11.618;2023-06-26T03:25:15;20.20;90.70
39925;DHT22;25592;49.986;11.618;2023-06-26T03:28:00;20.20;90.70
39925;DHT22;25592;49.986;11.618;2023-06-26T03:30:46;20.20;90.70
39925;DHT22;25592;49.986;11.618;2023-06-26T03:33:31;20.20;90.80
39925;DHT22;25592;49.986;11.618;2023-06-26T03:36:17;20.20;90.80
39925;DHT22;25592;49.986;11.618;2023-06-26T03:39:02;20.20;91.00
39925;DHT22;25592;49.986;11.618;2023-06-26T03:41:49;20.20;90.80
39925;DHT22;25592;49.986;11.618;2023-06-26T03:44:34;20.10;91.00
39925;DHT22;25592;49.986;11.618;2023-06-26T03:47:19;20.10;90.90
39925;DHT22;25592;49.986;11.618;2023-06-26T03:50:05;20.10;91.10
39925;DHT22;25592;49.986;11.618;2023-06-26T03:52:51;20.10;91.20
39925;DHT22;25592;49.986;11.618;2023-06-26T03:55:37;20.10;91.10
39925;DHT22;25592;49.986;11.618;2023-06-26T03:58:23;20.10;91.20
39925;DHT22;25592;49.986;11.618;2023-06-26T04:01:09;20.10;91.10
39925;DHT22;25592;49.986;11.618;2023-06-26T04:03:55;20.00;91.20
39925;DHT22;25592;49.986;11.618;2023-06-26T04:06:40;20.10;91.30
39925;DHT22;25592;49.986;11.618;2023-06-26T04:09:26;20.00;91.20
39925;DHT22;25592;49.986;11.618;2023-06-26T04:12:11;20.00;91.20
39925;DHT22;25592;49.986;11.618;2023-06-26T04:14:57;20.00;91.50
39925;DHT22;25592;49.986;11.618;2023-06-26T04:17:42;20.10;91.60
39925;DHT22;25592;49.986;11.618;2023-06-26T04:20:28;20.10;91.30
39925;DHT22;25592;49.986;11.618;2023-06-26T04:23:13;20.10;91.50
39925;DHT22;25592;49.986;11.618;2023-06-26T04:25:59;20.10;91.30
39925;DHT22;25592;49.986;11.618;2023-06-26T04:28:44;20.10;91.50
39925;DHT22;25592;49.986;11.618;2023-06-26T04:31:30;20.10;91.60
39925;DHT22;25592;49.986;11.618;2023-06-26T04:34:15;20.10;91.50
39925;DHT22;25592;49.986;11.618;2023-06-26T04:37:01;20.20;91.90
39925;DHT22;25592;49.986;11.618;2023-06-26T04:39:49;20.20;92.20
39925;DHT22;25592;49.986;11.618;2023-06-26T04:42:34;20.20;92.10
39925;DHT22;25592;49.986;11.618;2023-06-26T04:45:19;20.20;92.00
39925;DHT22;25592;49.986;11.618;2023-06-26T04:48:04;20.20;92.30
39925;DHT22;25592;49.986;11.618;2023-06-26T04:50:50;20.20;92.40
39925;DHT22;25592;49.986;11.618;2023-06-26T04:53:39;20.20;92.20
39925;DHT22;25592;49.986;11.618;2023-06-26T04:56:24;20.30;92.50
39925;DHT22;25592;49.986;11.618;2023-06-26T04:59:10;20.30;92.50
39925;DHT22;25592;49.986;11.618;2023-06-26T05:01:58;20.40;92.30
39925;DHT22;25592;49.986;11.618;2023-06-26T05:04:43;20.60;92.20
39925;DHT22;25592;49.986;11.618;2023-06-26T05:07:29;20.70;92.00
39925;DHT22;25592;49.986;11.618;2023-06-26T05:10:15;20.80;92.00
39925;DHT22;25592;49.986;11.618;2023-06-26T05:13:00;20.90;92.00
39925;DHT22;25592;49.986;11.618;2023-06-26T05:15:46;21.00;92.00
39925;DHT22;25592;49.986;11.618;2023-06-26T05:18:32;21.10;91.80
39925;DHT22;25592;49.986;11.618;2023-06-26T05:21:17;21.20;91.60
39925;DHT22;25592;49.986;11.618;2023-06-26T05:24:03;21.30;91.50
39925;DHT22;25592;49.986;11.618;2023-06-26T05:26:49;21.40;91.30
39925;DHT22;25592;49.986;11.618;2023-06-26T05:29:35;21.40;91.20
39925;DHT22;25592;49.986;11.618;2023-06-26T05:32:23;21.50;91.10
39925;DHT22;25592;49.986;11.618;2023-06-26T05:35:09;21.40;91.10
39925;DHT22;25592;49.986;11.618;2023-06-26T05:37:56;21.40;91.10
39925;DHT22;25592;49.986;11.618;2023-06-26T05:40:42;21.40;91.10
39925;DHT22;25592;49.986;11.618;2023-06-26T05:43:27;21.50;91.10
39925;DHT22;25592;49.986;11.618;2023-06-26T05:46:13;21.70;90.90
39925;DHT22;25592;49.986;11.618;2023-06-26T05:48:59;21.70;90.80
39925;DHT22;25592;49.986;11.618;2023-06-26T05:51:44;21.70;90.90
39925;DHT22;25592;49.986;11.618;2023-06-26T05:54:30;21.80;91.20
39925;DHT22;25592;49.986;11.618;2023-06-26T05:57:15;21.80;91.30
39925;DHT22;25592;49.986;11.618;2023-06-26T06:00:01;21.90;91.00
39925;DHT22;25592;49.986;11.618;2023-06-26T06:02:48;21.80;91.10
39925;DHT22;25592;49.986;11.618;2023-06-26T06:05:33;21.90;91.30
39925;DHT22;25592;49.986;11.618;2023-06-26T06:08:19;21.90;90.90
39925;DHT22;25592;49.986;11.618;2023-06-26T06:11:04;21.90;91.10
39925;DHT22;25592;49.986;11.618;2023-06-26T06:13:50;22.00;91.20
39925;DHT22;25592;49.986;11.618;2023-06-26T06:16:36;22.00;90.70
39925;DHT22;25592;49.986;11.618;2023-06-26T06:19:21;22.00;90.40
39925;DHT22;25592;49.986;11.618;2023-06-26T06:22:06;22.00;90.40
39925;DHT22;25592;49.986;11.618;2023-06-26T06:24:52;22.00;89.90
39925;DHT22;25592;49.986;11.618;2023-06-26T06:27:37;22.00;88.60
39925;DHT22;25592;49.986;11.618;2023-06-26T06:30:23;22.00;87.50
39925;DHT22;25592;49.986;11.618;2023-06-26T06:33:28;22.10;87.20
39925;DHT22;25592;49.986;11.618;2023-06-26T06:36:14;22.10;87.00
39925;DHT22;25592;49.986;11.618;2023-06-26T06:38:59;22.20;87.80
39925;DHT22;25592;49.986;11.618;2023-06-26T06:41:44;22.40;86.40
39925;DHT22;25592;49.986;11.618;2023-06-26T06:44:30;22.40;86.60
39925;DHT22;25592;49.986;11.618;2023-06-26T06:47:15;22.40;86.50
39925;DHT22;25592;49.986;11.618;2023-06-26T06:50:01;22.60;87.00
39925;DHT22;25592;49.986;11.618;2023-06-26T06:52:53;22.60;85.00
39925;DHT22;25592;49.986;11.618;2023-06-26T06:55:39;22.60;82.20
39925;DHT22;25592;49.986;11.618;2023-06-26T06:58:24;22.70;82.80
39925;DHT22;25592;49.986;11.618;2023-06-26T07:01:09;22.80;84.10
39925;DHT22;25592;49.986;11.618;2023-06-26T07:03:55;22.90;82.70
39925;DHT22;25592;49.986;11.618;2023-06-26T07:06:40;22.80;81.80
39925;DHT22;25592;49.986;11.618;2023-06-26T07:09:25;23.00;82.30
39925;DHT22;25592;49.986;11.618;2023-06-26T07:12:11;23.00;82.10
39925;DHT22;25592;49.986;11.618;2023-06-26T07:14:57;23.00;82.60
39925;DHT22;25592;49.986;11.618;2023-06-26T07:17:42;23.20;82.80
39925;DHT22;25592;49.986;11.618;2023-06-26T07:20:28;23.30;82.10
39925;DHT22;25592;49.986;11.618;2023-06-26T07:23:13;23.40;81.80
39925;DHT22;25592;49.986;11.618;2023-06-26T07:25:59;23.50;83.50
39925;DHT22;25592;49.986;11.618;2023-06-26T07:28:44;23.70;81.80
39925;DHT22;25592;49.986;11.618;2023-06-26T07:31:30;23.70;81.50
39925;DHT22;25592;49.986;11.618;2023-06-26T07:34:15;23.80;81.30
39925;DHT22;25592;49.986;11.618;2023-06-26T07:37:01;23.80;81.10
39925;DHT22;25592;49.986;11.618;2023-06-26T07:39:47;23.90;82.00
39925;DHT22;25592;49.986;11.618;2023-06-26T07:42:32;24.10;82.20
39925;DHT22;25592;49.986;11.618;2023-06-26T07:45:18;24.20;81.80
39925;DHT22;25592;49.986;11.618;2023-06-26T07:48:03;24.30;80.50
39925;DHT22;25592;49.986;11.618;2023-06-26T07:50:49;24.60;81.90
39925;DHT22;25592;49.986;11.618;2023-06-26T07:53:34;24.80;80.80
39925;DHT22;25592;49.986;11.618;2023-06-26T07:56:20;24.70;80.40
39925;DHT22;25592;49.986;11.618;2023-06-26T07:59:05;24.80;80.70
39925;DHT22;25592;49.986;11.618;2023-06-26T08:01:52;24.90;80.10
39925;DHT22;25592;49.986;11.618;2023-06-26T08:04:37;25.00;80.00
39925;DHT22;25592;49.986;11.618;2023-06-26T08:07:23;25.10;80.10
39925;DHT22;25592;49.986;11.618;2023-06-26T08:10:08;25.00;80.80
39925;DHT22;25592;49.986;11.618;2023-06-26T08:12:54;25.10;79.40
39925;DHT22;25592;49.986;11.618;2023-06-26T08:15:41;25.20;78.60
39925;DHT22;25592;49.986;11.618;2023-06-26T08:18:26;25.40;79.50
39925;DHT22;25592;49.986;11.618;2023-06-26T08:21:12;25.50;79.30
39925;DHT22;25592;49.986;11.618;2023-06-26T08:23:57;25.70;79.50
39925;DHT22;25592;49.986;11.618;2023-06-26T08:26:47;25.80;78.30
39925;DHT22;25592;49.986;11.618;2023-06-26T08:29:32;25.90;77.80
39925;DHT22;25592;49.986;11.618;2023-06-26T08:32:18;26.00;78.30
39925;DHT22;25592;49.986;11.618;2023-06-26T08:35:05;26.10;77.10
39925;DHT22;25592;49.986;11.618;2023-06-26T08:37:51;26.20;77.80
39925;DHT22;25592;49.986;11.618;2023-06-26T08:40:36;26.60;78.00
39925;DHT22;25592;49.986;11.618;2023-06-26T08:43:22;26.90;79.00
39925;DHT22;25592;49.986;11.618;2023-06-26T08:46:08;27.00;75.60
39925;DHT22;25592;49.986;11.618;2023-06-26T08:49:00;27.00;71.20
39925;DHT22;25592;49.986;11.618;2023-06-26T08:52:35;26.90;72.20
39925;DHT22;25592;49.986;11.618;2023-06-26T08:55:02;26.90;71.20
39925;DHT22;25592;49.986;11.618;2023-06-26T08:57:47;27.10;71.60
39925;DHT22;25592;49.986;11.618;2023-06-26T09:00:33;27.20;75.50
39925;DHT22;25592;49.986;11.618;2023-06-26T09:03:19;27.60;74.10
39925;DHT22;25592;49.986;11.618;2023-06-26T09:06:04;27.60;69.70
39925;DHT22;25592;49.986;11.618;2023-06-26T09:08:50;27.60;69.30
39925;DHT22;25592;49.986;11.618;2023-06-26T09:11:35;27.50;69.40
39925;DHT22;25592;49.986;11.618;2023-06-26T09:14:21;27.50;69.40
39925;DHT22;25592;49.986;11.618;2023-06-26T09:17:06;27.70;68.20
39925;DHT22;25592;49.986;11.618;2023-06-26T09:19:52;28.00;69.90
39925;DHT22;25592;49.986;11.618;2023-06-26T09:22:40;28.10;64.70
39925;DHT22;25592;49.986;11.618;2023-06-26T09:25:25;28.20;65.00
39925;DHT22;25592;49.986;11.618;2023-06-26T09:28:11;28.40;64.50
39925;DHT22;25592;49.986;11.618;2023-06-26T09:31:04;28.60;65.40
39925;DHT22;25592;49.986;11.618;2023-06-26T09:33:59;28.70;65.80
39925;DHT22;25592;49.986;11.618;2023-06-26T09:36:44;29.00;63.90
39925;DHT22;25592;49.986;11.618;2023-06-26T09:39:31;28.90;62.00
39925;DHT22;25592;49.986;11.618;2023-06-26T09:42:17;29.10;63.90
39925;DHT22;25592;49.986;11.618;2023-06-26T09:45:03;29.40;62.80
39925;DHT22;25592;49.986;11.618;2023-06-26T09:47:49;29.30;61.90
39925;DHT22;25592;49.986;11.618;2023-06-26T09:50:34;29.20;60.20
39925;DHT22;25592;49.986;11.618;2023-06-26T09:53:20;29.40;59.90
39925;DHT22;25592;49.986;11.618;2023-06-26T09:56:15;29.40;60.00
39925;DHT22;25592;49.986;11.618;2023-06-26T09:59:05;29.60;58.90
39925;DHT22;25592;49.986;11.618;2023-06-26T10:01:59;29.80;60.90
39925;DHT22;25592;49.986;11.618;2023-06-26T10:04:45;29.90;61.50
39925;DHT22;25592;49.986;11.618;2023-06-26T10:07:31;30.10;60.30
39925;DHT22;25592;49.986;11.618;2023-06-26T10:10:17;29.80;58.40
39925;DHT22;25592;49.986;11.618;2023-06-26T10:13:21;29.90;58.50
39925;DHT22;25592;49.986;11.618;2023-06-26T10:16:08;30.00;58.50
39925;DHT22;25592;49.986;11.618;2023-06-26T10:18:58;30.20;59.80
39925;DHT22;25592;49.986;11.618;2023-06-26T10:21:46;30.20;57.60
39925;DHT22;25592;49.986;11.618;2023-06-26T10:24:33;30.20;58.20
39925;DHT22;25592;49.986;11.618;2023-06-26T10:27:21;30.10;56.80
39925;DHT22;25592;49.986;11.618;2023-06-26T10:30:12;30.30;57.30
39925;DHT22;25592;49.986;11.618;2023-06-26T10:32:59;30.40;57.10
39925;DHT22;25592;49.986;11.618;2023-06-26T10:35:46;30.70;57.40
39925;DHT22;25592;49.986;11.618;2023-06-26T10:38:49;30.80;56.80
39925;DHT22;25592;49.986;11.618;2023-06-26T10:41:40;30.70;55.60
39925;DHT22;25592;49.986;11.618;2023-06-26T10:44:48;30.70;55.70
39925;DHT22;25592;49.986;11.618;2023-06-26T10:47:33;30.80;55.40
39925;DHT22;25592;49.986;11.618;2023-06-26T10:50:27;30.60;55.90
39925;DHT22;25592;49.986;11.618;2023-06-26T10:56:06;31.00;53.90
39925;DHT22;25592;49.986;11.618;2023-06-26T10:58:52;30.90;54.50
39925;DHT22;25592;49.986;11.618;2023-06-26T11:01:41;30.90;55.30
39925;DHT22;25592;49.986;11.618;2023-06-26T11:04:37;31.00;55.50
39925;DHT22;25592;49.986;11.618;2023-06-26T11:07:25;31.10;54.60
39925;DHT22;25592;49.986;11.618;2023-06-26T11:10:11;31.20;55.60
39925;DHT22;25592;49.986;11.618;2023-06-26T11:12:58;31.30;56.00
39925;DHT22;25592;49.986;11.618;2023-06-26T11:15:43;31.60;55.40
39925;DHT22;25592;49.986;11.618;2023-06-26T11:18:31;31.70;56.20
39925;DHT22;25592;49.986;11.618;2023-06-26T11:21:16;31.70;54.80
39925;DHT22;25592;49.986;11.618;2023-06-26T11:24:02;31.90;55.00
39925;DHT22;25592;49.986;11.618;2023-06-26T11:26:48;31.90;54.70
39925;DHT22;25592;49.986;11.618;2023-06-26T11:29:34;32.20;54.20
39925;DHT22;25592;49.986;11.618;2023-06-26T11:32:19;32.20;53.80
39925;DHT22;25592;49.986;11.618;2023-06-26T11:35:05;32.20;52.70
39925;DHT22;25592;49.986;11.618;2023-06-26T11:37:55;32.10;53.50
39925;DHT22;25592;49.986;11.618;2023-06-26T11:40:41;32.00;53.50
39925;DHT22;25592;49.986;11.618;2023-06-26T11:43:27;32.00;53.30
39925;DHT22;25592;49.986;11.618;2023-06-26T11:46:12;32.10;53.90
39925;DHT22;25592;49.986;11.618;2023-06-26T11:48:58;32.00;52.00
39925;DHT22;25592;49.986;11.618;2023-06-26T11:51:46;31.90;53.70
39925;DHT22;25592;49.986;11.618;2023-06-26T11:54:31;32.10;52.40
39925;DHT22;25592;49.986;11.618;2023-06-26T11:57:17;32.10;52.90
39925;DHT22;25592;49.986;11.618;2023-06-26T12:00:15;32.20;53.30
39925;DHT22;25592;49.986;11.618;2023-06-26T12:03:01;32.50;52.60
39925;DHT22;25592;49.986;11.618;2023-06-26T12:05:48;32.70;54.10
39925;DHT22;25592;49.986;11.618;2023-06-26T12:08:35;33.00;53.60
39925;DHT22;25592;49.986;11.618;2023-06-26T12:11:23;33.10;52.20
39925;DHT22;25592;49.986;11.618;2023-06-26T12:14:09;32.80;51.40
39925;DHT22;25592;49.986;11.618;2023-06-26T12:16:54;32.80;52.90
39925;DHT22;25592;49.986;11.618;2023-06-26T12:19:45;32.70;52.00
39925;DHT22;25592;49.986;11.618;2023-06-26T12:22:35;32.90;53.90
39925;DHT22;25592;49.986;11.618;2023-06-26T12:25:24;33.40;52.60
39925;DHT22;25592;49.986;11.618;2023-06-26T12:28:17;33.50;52.50
39925;DHT22;25592;49.986;11.618;2023-06-26T12:31:16;33.60;53.30
39925;DHT22;25592;49.986;11.618;2023-06-26T12:34:12;33.60;53.10
39925;DHT22;25592;49.986;11.618;2023-06-26T12:37:05;33.80;52.20
39925;DHT22;25592;49.986;11.618;2023-06-26T12:39:53;33.60;50.90
39925;DHT22;25592;49.986;11.618;2023-06-26T12:42:38;33.50;50.90
39925;DHT22;25592;49.986;11.618;2023-06-26T12:45:23;33.30;50.10
39925;DHT22;25592;49.986;11.618;2023-06-26T12:48:16;33.40;49.60
39925;DHT22;25592;49.986;11.618;2023-06-26T12:51:16;33.20;51.00
39925;DHT22;25592;49.986;11.618;2023-06-26T12:54:02;33.20;51.20
39925;DHT22;25592;49.986;11.618;2023-06-26T12:56:48;33.30;53.10
39925;DHT22;25592;49.986;11.618;2023-06-26T12:59:34;33.50;52.10
39925;DHT22;25592;49.986;11.618;2023-06-26T13:02:20;33.70;52.00
39925;DHT22;25592;49.986;11.618;2023-06-26T13:05:06;33.80;52.50
39925;DHT22;25592;49.986;11.618;2023-06-26T13:07:51;33.60;50.80
39925;DHT22;25592;49.986;11.618;2023-06-26T13:10:37;34.00;53.20
39925;DHT22;25592;49.986;11.618;2023-06-26T13:13:22;34.10;52.30
39925;DHT22;25592;49.986;11.618;2023-06-26T13:16:08;34.00;50.00
39925;DHT22;25592;49.986;11.618;2023-06-26T13:18:54;34.20;53.20
39925;DHT22;25592;49.986;11.618;2023-06-26T13:21:39;34.10;49.00
39925;DHT22;25592;49.986;11.618;2023-06-26T13:24:24;33.80;49.90
39925;DHT22;25592;49.986;11.618;2023-06-26T13:27:10;33.50;49.20
39925;DHT22;25592;49.986;11.618;2023-06-26T13:29:55;33.70;49.50
39925;DHT22;25592;49.986;11.618;2023-06-26T13:32:41;33.80;49.30
39925;DHT22;25592;49.986;11.618;2023-06-26T13:35:27;33.80;50.50
39925;DHT22;25592;49.986;11.618;2023-06-26T13:38:13;33.80;49.20
39925;DHT22;25592;49.986;11.618;2023-06-26T13:40:58;34.00;50.00
39925;DHT22;25592;49.986;11.618;2023-06-26T13:43:45;34.20;51.40
39925;DHT22;25592;49.986;11.618;2023-06-26T13:46:31;34.50;49.80
39925;DHT22;25592;49.986;11.618;2023-06-26T13:49:17;34.60;50.10
39925;DHT22;25592;49.986;11.618;2023-06-26T13:52:02;34.60;50.50
39925;DHT22;25592;49.986;11.618;2023-06-26T13:54:48;34.10;49.30
39925;DHT22;25592;49.986;11.618;2023-06-26T13:57:33;33.70;49.00
39925;DHT22;25592;49.986;11.618;2023-06-26T14:00:19;33.50;49.60
39925;DHT22;25592;49.986;11.618;2023-06-26T14:03:07;33.50;51.60
39925;DHT22;25592;49.986;11.618;2023-06-26T14:05:53;33.90;52.60
39925;DHT22;25592;49.986;11.618;2023-06-26T14:08:38;33.80;52.30
39925;DHT22;25592;49.986;11.618;2023-06-26T14:11:24;33.90;52.60
39925;DHT22;25592;49.986;11.618;2023-06-26T14:14:10;33.60;51.10
39925;DHT22;25592;49.986;11.618;2023-06-26T14:16:56;33.40;51.40
39925;DHT22;25592;49.986;11.618;2023-06-26T14:19:41;33.20;52.00
39925;DHT22;25592;49.986;11.618;2023-06-26T14:22:27;33.00;52.50
39925;DHT22;25592;49.986;11.618;2023-06-26T14:25:13;33.10;51.20
39925;DHT22;25592;49.986;11.618;2023-06-26T14:27:59;32.80;52.30
39925;DHT22;25592;49.986;11.618;2023-06-26T14:30:44;32.70;52.40
39925;DHT22;25592;49.986;11.618;2023-06-26T14:33:30;32.70;53.70
39925;DHT22;25592;49.986;11.618;2023-06-26T14:36:15;32.60;53.40
39925;DHT22;25592;49.986;11.618;2023-06-26T14:39:01;32.20;52.70
39925;DHT22;25592;49.986;11.618;2023-06-26T14:41:47;32.00;53.80
39925;DHT22;25592;49.986;11.618;2023-06-26T14:44:33;31.80;54.90
39925;DHT22;25592;49.986;11.618;2023-06-26T14:47:19;31.90;57.40
39925;DHT22;25592;49.986;11.618;2023-06-26T14:50:05;31.80;55.50
39925;DHT22;25592;49.986;11.618;2023-06-26T14:52:51;31.70;55.40
39925;DHT22;25592;49.986;11.618;2023-06-26T14:55:37;31.70;55.40
39925;DHT22;25592;49.986;11.618;2023-06-26T14:58:22;31.50;55.30
39925;DHT22;25592;49.986;11.618;2023-06-26T15:01:08;31.20;55.60
39925;DHT22;25592;49.986;11.618;2023-06-26T15:03:54;31.30;56.60
39925;DHT22;25592;49.986;11.618;2023-06-26T15:06:39;31.50;56.50
39925;DHT22;25592;49.986;11.618;2023-06-26T15:09:24;31.50;57.50
39925;DHT22;25592;49.986;11.618;2023-06-26T15:12:10;31.50;58.40
39925;DHT22;25592;49.986;11.618;2023-06-26T15:14:55;31.50;58.40
39925;DHT22;25592;49.986;11.618;2023-06-26T15:17:40;31.30;58.50
39925;DHT22;25592;49.986;11.618;2023-06-26T15:20:26;31.20;59.60
39925;DHT22;25592;49.986;11.618;2023-06-26T15:23:11;31.20;58.20
39925;DHT22;25592;49.986;11.618;2023-06-26T15:25:56;31.10;59.60
39925;DHT22;25592;49.986;11.618;2023-06-26T15:28:42;30.70;58.70
39925;DHT22;25592;49.986;11.618;2023-06-26T15:31:29;30.50;59.00
39925;DHT22;25592;49.986;11.618;2023-06-26T15:34:15;30.50;60.50
39925;DHT22;25592;49.986;11.618;2023-06-26T15:37:01;30.50;60.00
39925;DHT22;25592;49.986;11.618;2023-06-26T15:39:46;30.50;60.10
39925;DHT22;25592;49.986;11.618;2023-06-26T15:42:31;30.40;60.40
39925;DHT22;25592;49.986;11.618;2023-06-26T15:45:17;30.40;61.30
39925;DHT22;25592;49.986;11.618;2023-06-26T15:48:10;30.40;60.90
39925;DHT22;25592;49.986;11.618;2023-06-26T15:50:56;30.30;62.10
39925;DHT22;25592;49.986;11.618;2023-06-26T15:53:42;30.50;62.70
39925;DHT22;25592;49.986;11.618;2023-06-26T15:56:28;30.70;62.90
39925;DHT22;25592;49.986;11.618;2023-06-26T15:59:13;30.60;62.30
39925;DHT22;25592;49.986;11.618;2023-06-26T16:02:03;30.50;63.90
39925;DHT22;25592;49.986;11.618;2023-06-26T16:04:48;30.30;63.20
39925;DHT22;25592;49.986;11.618;2023-06-26T16:07:35;30.00;62.40
39925;DHT22;25592;49.986;11.618;2023-06-26T16:10:40;29.80;62.90
39925;DHT22;25592;49.986;11.618;2023-06-26T16:13:26;29.80;63.60
39925;DHT22;25592;49.986;11.618;2023-06-26T16:16:12;29.80;63.60
39925;DHT22;25592;49.986;11.618;2023-06-26T16:18:58;29.70;64.50
39925;DHT22;25592;49.986;11.618;2023-06-26T16:21:44;29.80;64.60
39925;DHT22;25592;49.986;11.618;2023-06-26T16:24:29;29.70;64.00
39925;DHT22;25592;49.986;11.618;2023-06-26T16:27:14;29.70;64.70
39925;DHT22;25592;49.986;11.618;2023-06-26T16:30:00;29.70;64.70
39925;DHT22;25592;49.986;11.618;2023-06-26T16:32:46;29.70;64.40
39925;DHT22;25592;49.986;11.618;2023-06-26T16:35:31;29.80;64.40
39925;DHT22;25592;49.986;11.618;2023-06-26T16:38:19;29.90;64.30
39925;DHT22;25592;49.986;11.618;2023-06-26T16:41:04;30.10;65.20
39925;DHT22;25592;49.986;11.618;2023-06-26T16:43:50;29.80;63.70
39925;DHT22;25592;49.986;11.618;2023-06-26T16:46:35;29.70;65.70
39925;DHT22;25592;49.986;11.618;2023-06-26T16:49:20;29.70;66.50
39925;DHT22;25592;49.986;11.618;2023-06-26T16:52:06;29.60;66.10
39925;DHT22;25592;49.986;11.618;2023-06-26T16:54:51;29.30;65.60
39925;DHT22;25592;49.986;11.618;2023-06-26T16:57:36;29.40;66.40
39925;DHT22;25592;49.986;11.618;2023-06-26T17:00:22;29.70;66.60
39925;DHT22;25592;49.986;11.618;2023-06-26T17:03:07;29.60;67.00
39925;DHT22;25592;49.986;11.618;2023-06-26T17:05:54;29.80;67.60
39925;DHT22;25592;49.986;11.618;2023-06-26T17:08:51;30.00;67.70
39925;DHT22;25592;49.986;11.618;2023-06-26T17:11:40;30.00;66.80
39925;DHT22;25592;49.986;11.618;2023-06-26T17:14:31;29.80;67.40
39925;DHT22;25592;49.986;11.618;2023-06-26T17:17:20;29.60;67.10
39925;DHT22;25592;49.986;11.618;2023-06-26T17:20:11;29.30;67.70
39925;DHT22;25592;49.986;11.618;2023-06-26T17:23:05;29.20;68.80
39925;DHT22;25592;49.986;11.618;2023-06-26T17:25:57;29.20;69.00